Station MLWW3 - Port of Milwaukee Image indicating link to RSS feed of recent meteorological observations for station MLWW3


Conditions at MLWW3 as of
(6:40 pm CDT)
2340 GMT on 05/19/2024:
     

Click on the graph icon in the table below to see a time series plot of the last five days of that observation.

5-day plot - Wind Direction Wind Direction (WDIR): NE ( 40 deg true )
5-day plot - Wind Speed Wind Speed (WSPD): 2 kts
5-day plot - Wind Gust Wind Gust (GST): 2 kts
5-day plot - Air Temperature Air Temperature (ATMP): 60.8 °F
5-day plot -  Wind Speed, Wind Gust and Atmospheric Pressure Combined plot of Wind Speed, Gust, and Air Pressure
Previous observations
TIME
(CDT)
5-day plot - Wind Direction
WDIR
 
5-day plot - Wind Speed
WSPD
kts
5-day plot - Wind Gust
GST
kts
5-day plot - Wave Height
WVHT
ft
5-day plot - Dominant Wave Period
DPD
sec
5-day plot - Average Wave Period
APD
sec
5-day plot - Mean Wave Direction
MWD
 
5-day plot - Atmospheric Pressure
PRES
in
5-day plot - Pressure Tendency
PTDY
in
5-day plot - Air Temperature
ATMP
°F
5-day plot - Water Temperature
WTMP
°F
5-day plot - Dew Point
DEWP
°F
5-day plot - Salinity
SAL
psu
5-day plot - Visibility
VIS
nmi
5-day plot - Tide (above MLLW)
TIDE
ft
2024-05-19 06:30 pm NE 2 3------ 61.0-----
2024-05-19 06:20 pm- 0 0------ 61.5-----
2024-05-19 06:10 pm E 2 2------ 60.6-----
2024-05-19 06:00 pm E 2 2------ 61.7-----
2024-05-19 05:50 pm- 0 0------ 63.3-----
2024-05-19 05:40 pmESE 2 2------ 62.1-----
2024-05-19 05:30 pm E 1 2------ 62.8-----
2024-05-19 05:20 pm E 1 1------ 63.3-----
2024-05-19 05:10 pm E 2 2------ 64.0-----
2024-05-19 05:00 pm E 1 2------ 63.7-----
2024-05-19 04:50 pmESE 2 3------ 61.3-----
2024-05-19 04:40 pmESE 2 3------ 62.2-----
2024-05-19 04:30 pmESE 2 3------ 62.2-----
2024-05-19 04:20 pm E 2 3------ 63.3-----
2024-05-19 04:10 pmENE 3 3------ 63.5-----
2024-05-19 04:00 pm E 2 2------ 63.9-----
2024-05-19 03:50 pmENE 2 2------ 62.6-----
2024-05-19 03:40 pm NE 4 5------ 61.2-----
2024-05-19 03:30 pmENE 2 5------ 63.5-----
2024-05-19 03:20 pmSSE 1 1------ 62.4-----
2024-05-19 03:10 pmENE 2 3------ 62.1-----
2024-05-19 03:00 pm E 4 4------ 61.9-----
2024-05-19 02:50 pm NE 2 3------ 62.2-----
2024-05-19 02:40 pm E 2 2------ 63.5-----
2024-05-19 02:30 pm E 1 2------ 63.0-----
2024-05-19 02:20 pm SE 1 2------ 61.9-----
2024-05-19 02:10 pmENE 4 5------ 61.2-----
2024-05-19 02:00 pmNNE 4 4------ 60.3-----
2024-05-19 01:50 pm NE 3 4------ 60.8-----
2024-05-19 01:40 pm NE 2 3------ 61.7-----
2024-05-19 01:30 pm E 2 3------ 63.0-----
2024-05-19 01:20 pm NE 2 4------ 61.7-----
2024-05-19 01:10 pmENE 2 3------ 62.1-----
2024-05-19 01:00 pm E 2 3------ 62.6-----
2024-05-19 12:50 pmENE 2 2------ 62.2-----
2024-05-19 12:40 pmENE 2 3------ 62.8-----
2024-05-19 12:30 pm E 2 3------ 61.7-----
2024-05-19 12:20 pmNNE 4 5------ 60.4-----
2024-05-19 12:10 pmNNE 4 5------ 60.1-----
2024-05-19 12:00 pmNNE 3 4------ 59.9-----
2024-05-19 11:50 am E 2 4------ 61.2-----
2024-05-19 11:40 amENE 1 2------ 60.4-----
2024-05-19 11:30 am NE 2 3------ 59.2-----
2024-05-19 11:20 am NE 4 5------ 59.5-----
2024-05-19 11:10 amENE 6 7------ 60.3-----
2024-05-19 11:00 amENE 7 8------ 60.1-----
2024-05-19 10:50 amENE 7 8------ 60.4-----
2024-05-19 10:40 am NE 8 9------ 59.9-----
2024-05-19 10:30 am NE 8 9------ 59.5-----
2024-05-19 10:20 amNNE 9 9------ 60.4-----
2024-05-19 10:10 amNNE 9 10------ 60.1-----
2024-05-19 10:00 amNNE 8 9------ 61.0-----
2024-05-19 09:50 amNNE 9 9------ 61.9-----
2024-05-19 09:40 amNNE 8 9------ 61.7-----
2024-05-19 09:30 amNNE 11 12------ 63.1-----
2024-05-19 09:20 amNNE 12 14------ 64.0-----
2024-05-19 09:10 amNNE 10 11------ 62.6-----
2024-05-19 09:00 amNNE 11 12------ 63.0-----
2024-05-19 08:50 amNNE 10 10------ 63.0-----
2024-05-19 08:40 amNNE 10 10------ 64.8-----
2024-05-19 08:30 amNNE 11 14------ 65.5-----
2024-05-19 08:20 am N 10 12------ 67.1-----
2024-05-19 08:10 am N 10 11------ 66.6-----
2024-05-19 08:00 am N 10 11------ 66.0-----
2024-05-19 07:50 am N 10 12------ 66.9-----
2024-05-19 07:40 amNNW 10 13------ 67.5-----
2024-05-19 07:30 amNNW 12 14------ 67.3-----
2024-05-19 07:20 am N 10 12------ 67.3-----
2024-05-19 07:10 amNNW 9 11------ 67.1-----
2024-05-19 07:00 am N 11 12------ 67.5-----
2024-05-19 06:50 am N 11 13------ 66.9-----
2024-05-19 06:40 am N 12 15------ 67.3-----
2024-05-19 06:30 am N 8 9------ 67.3-----
2024-05-19 06:20 amNNW 10 11------ 67.8-----
2024-05-19 06:10 amNNW 6 8------ 67.1-----
2024-05-19 06:00 am N 7 8------ 67.6-----
2024-05-19 05:50 am N 7 9------ 68.0-----
2024-05-19 05:40 am N 7 8------ 68.0-----
2024-05-19 05:30 am N 6 8------ 68.9-----
2024-05-19 05:20 am N 8 10------ 68.9-----
2024-05-19 05:10 amNNW 10 12------ 69.4-----
2024-05-19 05:00 amNNW 9 13------ 69.6-----
2024-05-19 04:50 amNNW 10 13------ 70.2-----
2024-05-19 04:40 amNNW 9 13------ 70.3-----
2024-05-19 04:30 amNNW 11 15------ 71.1-----
2024-05-19 04:20 amNNW 11 15------ 71.2-----
2024-05-19 04:10 amNNW 10 14------ 71.8-----
2024-05-19 04:00 am NW 9 13------ 72.0-----
2024-05-19 03:50 amNNW 8 11------ 72.1-----
2024-05-19 03:40 amNNW 9 12------ 72.9-----
2024-05-19 03:30 am NW 8 10------ 73.0-----
2024-05-19 03:20 am NW 7 9------ 72.7-----
2024-05-19 03:10 amWNW 5 6------ 72.0-----
2024-05-19 03:00 am W 6 7------ 72.3-----
2024-05-19 02:50 am W 6 8------ 72.3-----
2024-05-19 02:40 am W 7 8------ 72.9-----
2024-05-19 02:30 am W 7 10------ 72.7-----
2024-05-19 02:20 amWSW 7 9------ 73.2-----
2024-05-19 02:10 amWSW 7 8------ 73.6-----
2024-05-19 02:00 amWSW 7 9------ 73.2-----
2024-05-19 01:50 amWSW 6 8------ 73.4-----
2024-05-19 01:40 am SW 7 8------ 73.8-----
2024-05-19 01:30 amWSW 7 10------ 74.3-----
2024-05-19 01:20 am SW 8 11------ 74.5-----
2024-05-19 01:10 am SW 8 10------ 74.7-----
2024-05-19 01:00 am SW 7 10------ 74.5-----
2024-05-19 12:50 amWSW 6 8------ 74.7-----
2024-05-19 12:40 amWSW 4 6------ 74.8-----
2024-05-19 12:30 am SW 6 9------ 75.4-----
2024-05-19 12:20 am SW 6 8------ 75.2-----
2024-05-19 12:10 amSSW 6 8------ 75.4-----
2024-05-19 12:00 am SW 5 7------ 74.8-----
2024-05-18 11:50 pm SW 4 5------ 74.7-----
2024-05-18 11:40 pm SW 4 6------ 73.9-----
2024-05-18 11:30 pm SW 5 6------ 73.4-----
2024-05-18 11:20 pmSSW 5 6------ 73.0-----
2024-05-18 11:10 pmSSW 5 6------ 72.5-----
2024-05-18 11:00 pmSSW 5 7------ 72.5-----
2024-05-18 10:50 pmSSW 6 8------ 72.5-----
2024-05-18 10:40 pmSSW 6 7------ 72.3-----
2024-05-18 10:30 pmSSW 8 10------ 72.0-----
2024-05-18 10:20 pmSSW 7 7------ 71.8-----
2024-05-18 10:10 pm S 7 9------ 71.8-----
2024-05-18 10:00 pmSSW 8 9------ 71.8-----
2024-05-18 09:50 pmSSW 8 9------ 71.8-----
2024-05-18 09:40 pmSSW 10 12------ 71.6-----
2024-05-18 09:30 pmSSW 9 10------ 71.8-----
2024-05-18 09:20 pmSSW 9 11------ 71.8-----
2024-05-18 09:10 pmSSW 8 10------ 72.1-----
2024-05-18 09:00 pm S 8 9------ 72.3-----
2024-05-18 08:50 pm S 7 9------ 71.4-----
2024-05-18 08:40 pm S 6 6------ 67.6-----
2024-05-18 08:30 pm S 5 6------ 71.1-----
2024-05-18 08:20 pm S 5 6------ 70.7-----
2024-05-18 08:10 pm S 6 6------ 71.8-----
2024-05-18 08:00 pm S 7 8------ 69.4-----
2024-05-18 07:50 pm S 8 9------ 71.6-----
2024-05-18 07:40 pmSSE 9 10------ 68.4-----
2024-05-18 07:30 pmSSE 9 10------ 68.0-----
2024-05-18 07:20 pmSSE 11 12------ 70.2-----
2024-05-18 07:10 pmSSE 11 12------ 70.9-----
2024-05-18 07:00 pmSSE 9 10------ 70.7-----
2024-05-18 06:50 pm S 11 13------ 73.6-----